Time;durP1;ratioP1;P1;durP2;ratioP2;P2;SDS_P1;SDS_P2;PMS_P1;PMS_P2;Temp;Humidity;BMP_temperature;BMP_pressure;BME280_temperature;BME280_humidity;BME280_pressure;Samples;Min_cycle;Max_cycle;Signal;HPM_P1;HPM_P2
2023/01/22 00:00:02;;;;;;;;;;;;;;;13.93;50.39;103681.75;2114057;28;19928;-52
2023/01/22 00:01:14;;;;;;;;;;;;;;;13.93;50.20;103681.75;2114876;27;20017;-51
2023/01/22 00:02:15;;;;;;;;;;;;;;;13.93;50.49;103681.75;2118616;27;19927;-51
2023/01/22 00:03:18;;;;;;;;;;;;;;;13.92;50.09;103677.44;2114652;27;20351;-51
2023/01/22 00:04:19;;;;;;;;;;;;;;;13.92;50.28;103680.16;2113882;27;20255;-51
2023/01/22 00:05:22;;;;;;;;;;;;;;;13.91;49.89;103671.19;2114513;28;19979;-51
2023/01/22 00:06:24;;;;;;;;;;;;;;;13.92;50.31;103680.94;2113452;28;20013;-50
2023/01/22 00:07:27;;;;;;;;;;;;;;;13.91;50.56;103675.81;2115821;27;19927;-49
2023/01/22 00:08:28;;;;;;;;;;;;;;;13.92;50.25;103680.16;2116109;28;19927;-51
2023/01/22 00:09:31;;;;;;;;;;;;;;;13.92;50.32;103680.16;2112791;28;20276;-49
2023/01/22 00:10:33;;;;;;;;;;;;;;;13.91;50.25;103673.09;2115815;27;19931;-50
2023/01/22 00:11:35;;;;;;;;;;;;;;;13.91;50.16;103670.38;2105497;28;19924;-50
2023/01/22 00:12:39;;;;;;;;;;;;;;;13.90;50.43;103677.75;2106006;28;19950;-51
2023/01/22 00:13:41;;;;;;;;;;;;;;;13.92;50.36;103678.22;2112804;28;19931;-50
2023/01/22 00:14:43;;;;;;;;;;;;;;;13.90;50.52;103677.75;2116749;28;20492;-50
2023/01/22 00:15:47;;;;;;;;;;;;;;;13.91;50.72;103678.53;2119113;27;19970;-49
2023/01/22 00:16:48;;;;;;;;;;;;;;;13.90;50.09;103675.03;2114873;27;20432;-48
2023/01/22 00:17:52;;;;;;;;;;;;;;;13.90;50.46;103677.75;2113693;28;19924;-48
2023/01/22 00:18:54;;;;;;;;;;;;;;;13.90;50.16;103675.03;2119614;28;20298;-49
2023/01/22 00:19:56;;;;;;;;;;;;;;;13.89;50.53;103667.94;2117390;28;19931;-50
2023/01/22 00:20:58;;;;;;;;;;;;;;;13.90;50.29;103676.91;2113343;28;19928;-48
2023/01/22 00:22:00;;;;;;;;;;;;;;;13.90;49.99;103674.19;2115361;28;20275;-50
2023/01/22 00:23:02;;;;;;;;;;;;;;;13.89;50.20;103672.59;2114757;28;20004;-50
2023/01/22 00:24:05;;;;;;;;;;;;;;;13.89;50.31;103676.09;2112661;28;20303;-50
2023/01/22 00:25:07;;;;;;;;;;;;;;;13.90;50.50;103671.50;2115393;28;19934;-50
2023/01/22 00:26:15;;;;;;;;;;;;;;;13.89;50.54;103675.31;2115005;28;19950;-50
2023/01/22 00:27:18;;;;;;;;;;;;;;;13.90;50.41;103668.78;2121703;28;19935;-50
2023/01/22 00:28:23;;;;;;;;;;;;;;;13.87;50.58;103672.91;2108174;28;19931;-48
2023/01/22 00:29:25;;;;;;;;;;;;;;;13.90;50.18;103671.50;2106682;28;19924;-50
2023/01/22 00:30:27;;;;;;;;;;;;;;;13.89;50.20;103670.66;2117290;28;19931;-49
2023/01/22 00:31:29;;;;;;;;;;;;;;;13.88;50.20;103669.06;2114663;28;19927;-50
2023/01/22 00:32:32;;;;;;;;;;;;;;;13.89;50.51;103661.75;2110717;28;20394;-51
2023/01/22 00:33:33;;;;;;;;;;;;;;;13.89;50.39;103670.66;2105222;28;19950;-48
2023/01/22 00:34:36;;;;;;;;;;;;;;;13.89;50.53;103665.25;2113775;28;19931;-50
2023/01/22 00:35:38;;;;;;;;;;;;;;;13.88;50.49;103658.19;2116141;28;19927;-48
2023/01/22 00:36:41;;;;;;;;;;;;;;;13.87;50.17;103662.03;2116536;28;19936;-51
2023/01/22 00:37:45;;;;;;;;;;;;;;;13.88;50.47;103662.81;2114902;28;19951;-48
2023/01/22 00:38:48;;;;;;;;;;;;;;;13.87;50.51;103662.03;2114170;28;19938;-48
2023/01/22 00:39:49;;;;;;;;;;;;;;;13.88;50.50;103660.09;2113200;28;19939;-50
2023/01/22 00:40:52;;;;;;;;;;;;;;;13.88;50.12;103660.09;2114676;28;19935;-53
2023/01/22 00:41:53;;;;;;;;;;;;;;;13.88;50.62;103657.38;2115179;27;19927;-50
2023/01/22 00:42:56;;;;;;;;;;;;;;;13.87;50.42;103659.31;2113826;27;20393;-53
2023/01/22 00:43:59;;;;;;;;;;;;;;;13.87;50.69;103661.22;2115253;27;19927;-52
2023/01/22 00:45:01;;;;;;;;;;;;;;;13.88;50.13;103662.81;2115258;27;19975;-49
2023/01/22 00:46:03;;;;;;;;;;;;;;;13.87;50.06;103662.03;2117239;27;19939;-50
2023/01/22 00:47:06;;;;;;;;;;;;;;;13.87;50.45;103661.22;2115805;27;19936;-52
2023/01/22 00:48:10;;;;;;;;;;;;;;;13.87;50.11;103661.22;2114531;27;19931;-51
2023/01/22 00:49:12;;;;;;;;;;;;;;;13.87;50.24;103666.66;2117839;27;20030;-51
2023/01/22 00:50:14;;;;;;;;;;;;;;;13.87;50.51;103670.19;2114982;27;19947;-50
2023/01/22 00:51:17;;;;;;;;;;;;;;;13.88;50.49;103670.97;2117850;27;19932;-50
2023/01/22 00:52:19;;;;;;;;;;;;;;;13.86;50.22;103673.97;2116533;27;19963;-51
2023/01/22 00:53:21;;;;;;;;;;;;;;;13.86;50.40;103667.75;2116716;27;19928;-50
2023/01/22 00:54:24;;;;;;;;;;;;;;;13.87;50.07;103677.50;2115826;27;19928;-50
2023/01/22 00:55:26;;;;;;;;;;;;;;;13.87;50.14;103666.66;2114389;27;19981;-50
2023/01/22 00:56:28;;;;;;;;;;;;;;;13.86;50.35;103665.81;2107880;28;19934;-50
2023/01/22 00:57:30;;;;;;;;;;;;;;;13.86;50.68;103665.03;2105667;28;19932;-49
2023/01/22 00:58:34;;;;;;;;;;;;;;;13.86;50.42;103667.75;2110558;28;19928;-50
2023/01/22 00:59:37;;;;;;;;;;;;;;;13.85;50.17;103660.69;2109781;28;20023;-50
2023/01/22 01:00:41;;;;;;;;;;;;;;;13.83;50.42;103662.88;2115473;27;20383;-49
2023/01/22 01:01:42;;;;;;;;;;;;;;;13.85;50.22;103660.69;2115010;27;19931;-51
2023/01/22 01:04:06;;;;;;;;;;;;;;;13.85;50.68;103658.78;2114680;27;19924;-51
2023/01/22 01:05:08;;;;;;;;;;;;;;;13.84;50.49;103661.81;2114089;28;20395;-50
2023/01/22 01:06:12;;;;;;;;;;;;;;;13.86;50.55;103665.03;2114125;27;19939;-48
2023/01/22 01:07:14;;;;;;;;;;;;;;;13.85;50.24;103671.56;2117518;27;19927;-48
2023/01/22 01:08:19;;;;;;;;;;;;;;;13.85;50.03;103663.41;2105475;28;19928;-51
2023/01/22 01:09:20;;;;;;;;;;;;;;;13.85;50.18;103668.84;2108108;28;19928;-52
2023/01/22 01:10:23;;;;;;;;;;;;;;;13.84;50.47;103661.81;2114778;27;19927;-50
2023/01/22 01:11:25;;;;;;;;;;;;;;;13.82;50.49;103662.09;2114135;27;19924;-48
2023/01/22 01:12:27;;;;;;;;;;;;;;;13.85;50.67;103666.13;2116410;27;19934;-51
2023/01/22 01:13:32;;;;;;;;;;;;;;;13.85;50.50;103666.13;2113836;28;19928;-51
2023/01/22 01:14:34;;;;;;;;;;;;;;;13.85;50.21;103663.41;2118151;27;19927;-52
2023/01/22 01:15:38;;;;;;;;;;;;;;;13.83;50.51;103662.88;2119338;27;19928;-52
2023/01/22 01:16:42;;;;;;;;;;;;;;;13.83;50.16;103662.88;2114096;28;19927;-48
2023/01/22 01:17:45;;;;;;;;;;;;;;;13.83;50.15;103665.59;2104982;28;20019;-49
2023/01/22 01:18:48;;;;;;;;;;;;;;;13.83;50.46;103665.59;2102946;28;19935;-49
2023/01/22 01:19:49;;;;;;;;;;;;;;;13.83;50.52;103661.00;2101619;28;19928;-47
2023/01/22 01:20:53;;;;;;;;;;;;;;;13.83;50.14;103654.75;2109978;28;19928;-52
2023/01/22 01:21:55;;;;;;;;;;;;;;;13.84;50.49;103650.94;2114310;27;20442;-51
2023/01/22 01:22:58;;;;;;;;;;;;;;;13.83;50.41;103658.28;2120413;27;19934;-49
2023/01/22 01:24:00;;;;;;;;;;;;;;;13.82;50.07;103653.94;2115241;27;19939;-50
2023/01/22 01:25:02;;;;;;;;;;;;;;;13.82;50.24;103662.09;2113391;27;19927;-49
2023/01/22 01:26:05;;;;;;;;;;;;;;;13.83;50.50;103655.56;2115128;27;19932;-48
2023/01/22 01:27:06;;;;;;;;;;;;;;;13.82;50.27;103656.66;2117125;27;19923;-52
2023/01/22 01:28:09;;;;;;;;;;;;;;;13.82;50.31;103659.38;2113817;28;19935;-49
2023/01/22 01:29:11;;;;;;;;;;;;;;;13.82;50.63;103658.56;2114686;27;20312;-49
2023/01/22 01:30:13;;;;;;;;;;;;;;;13.81;50.19;103657.75;2116361;27;19924;-50
2023/01/22 01:31:17;;;;;;;;;;;;;;;13.82;50.19;103655.84;2107441;28;20391;-50
2023/01/22 01:32:20;;;;;;;;;;;;;;;13.82;50.04;103650.41;2104098;28;19928;-50
2023/01/22 01:33:21;;;;;;;;;;;;;;;13.81;50.47;103652.31;2111393;28;19927;-50
2023/01/22 01:34:24;;;;;;;;;;;;;;;13.82;50.46;103653.13;2114411;27;19927;-51
2023/01/22 01:35:26;;;;;;;;;;;;;;;13.81;50.60;103646.88;2115899;27;19935;-48
2023/01/22 01:36:28;;;;;;;;;;;;;;;13.81;50.07;103651.53;2121195;27;19934;-47
2023/01/22 01:37:50;;;;;;;;;;;;;;;13.81;50.31;103651.53;2116759;27;19927;-49
2023/01/22 01:38:54;;;;;;;;;;;;;;;13.82;50.47;103647.69;2116600;27;19958;-50
2023/01/22 01:39:56;;;;;;;;;;;;;;;13.81;50.47;103643.38;2115039;27;19928;-51
2023/01/22 01:40:59;;;;;;;;;;;;;;;13.81;50.55;103651.53;2120550;27;19934;-49
2023/01/22 01:42:01;;;;;;;;;;;;;;;13.81;50.17;103646.09;2115801;27;19943;-52
2023/01/22 01:43:03;;;;;;;;;;;;;;;13.80;50.40;103649.91;2114411;27;19934;-51
2023/01/22 01:44:07;;;;;;;;;;;;;;;13.80;50.57;103649.91;2115503;27;19931;-52
2023/01/22 01:45:19;;;;;;;;;;;;;;;13.79;50.08;103646.41;2113954;28;20412;-49
2023/01/22 01:46:24;;;;;;;;;;;;;;;13.81;49.96;103648.81;2113587;27;19931;-50
2023/01/22 01:47:30;;;;;;;;;;;;;;;13.80;50.61;103653.44;2115392;27;20056;-51
2023/01/22 01:48:35;;;;;;;;;;;;;;;13.80;50.45;103650.72;2110184;28;19932;-50
2023/01/22 01:49:41;;;;;;;;;;;;;;;13.77;50.20;103648.59;2105929;28;19977;-49
2023/01/22 01:50:46;;;;;;;;;;;;;;;13.79;50.53;103646.41;2114110;27;19928;-51
2023/01/22 01:51:48;;;;;;;;;;;;;;;13.79;50.61;103654.53;2116815;27;19932;-51
2023/01/22 01:52:51;;;;;;;;;;;;;;;13.80;50.37;103641.75;2116916;27;19927;-50
2023/01/22 01:53:52;;;;;;;;;;;;;;;13.79;50.55;103643.69;2116175;27;19928;-51
2023/01/22 01:54:57;;;;;;;;;;;;;;;13.79;50.05;103643.69;2113591;27;19972;-48
2023/01/22 01:56:00;;;;;;;;;;;;;;;13.79;50.41;103649.13;2122913;27;20007;-52
2023/01/22 01:57:06;;;;;;;;;;;;;;;13.79;50.32;103648.28;2113074;28;20004;-51
2023/01/22 01:58:10;;;;;;;;;;;;;;;13.79;50.28;103646.41;2112901;27;19934;-52
2023/01/22 01:59:14;;;;;;;;;;;;;;;13.79;50.15;103648.28;2115399;27;20507;-51
2023/01/22 02:00:16;;;;;;;;;;;;;;;13.79;50.21;103642.88;2114254;27;20447;-53
2023/01/22 02:01:20;;;;;;;;;;;;;;;13.79;50.12;103648.28;2114178;27;19928;-51
2023/01/22 02:02:23;;;;;;;;;;;;;;;13.79;50.51;103648.28;2120417;27;19986;-52
2023/01/22 02:03:26;;;;;;;;;;;;;;;13.79;50.05;103640.16;2116165;27;19923;-51
2023/01/22 02:04:29;;;;;;;;;;;;;;;13.79;50.22;103648.28;2114346;27;20376;-48
2023/01/22 02:05:34;;;;;;;;;;;;;;;13.78;50.38;103641.25;2105121;28;19924;-50
2023/01/22 02:06:35;;;;;;;;;;;;;;;13.78;50.06;103644.75;2110324;28;19932;-49
2023/01/22 02:07:38;;;;;;;;;;;;;;;13.78;50.13;103642.03;2111055;28;20310;-50
2023/01/22 02:08:42;;;;;;;;;;;;;;;13.78;50.48;103643.97;2109309;28;19987;-48
2023/01/22 02:09:45;;;;;;;;;;;;;;;13.78;50.41;103638.53;2107666;28;20418;-55
2023/01/22 02:10:47;;;;;;;;;;;;;;;13.78;50.16;103635.84;2113406;27;19935;-51
2023/01/22 02:11:50;;;;;;;;;;;;;;;13.78;50.13;103639.34;2115065;27;20678;-51
2023/01/22 02:12:53;;;;;;;;;;;;;;;13.78;50.51;103636.63;2116689;27;19939;-51
2023/01/22 02:13:59;;;;;;;;;;;;;;;13.77;50.39;103634.19;2113923;28;20290;-50
2023/01/22 02:15:02;;;;;;;;;;;;;;;13.77;50.47;103635.00;2115435;27;20649;-50
2023/01/22 02:16:06;;;;;;;;;;;;;;;13.77;50.00;103624.16;2120971;27;19976;-49
2023/01/22 02:17:10;;;;;;;;;;;;;;;13.78;50.22;103630.41;2114337;28;20279;-51
2023/01/22 02:18:14;;;;;;;;;;;;;;;13.77;50.19;103632.31;2106160;28;19978;-51
2023/01/22 02:19:16;;;;;;;;;;;;;;;13.78;50.52;103624.97;2105645;28;20345;-50
2023/01/22 02:20:20;;;;;;;;;;;;;;;13.77;50.59;103628.75;2115716;27;19927;-48
2023/01/22 02:21:36;;;;;;;;;;;;;;;13.77;50.06;103623.34;2115494;27;19938;-49
2023/01/22 02:22:39;;;;;;;;;;;;;;;13.76;50.10;103617.13;2114076;28;19924;-50
2023/01/22 02:23:40;;;;;;;;;;;;;;;13.77;50.67;103617.91;2116327;27;19946;-51
2023/01/22 02:24:43;;;;;;;;;;;;;;;13.77;50.59;103617.91;2115114;27;19938;-50
2023/01/22 02:25:45;;;;;;;;;;;;;;;13.76;50.35;103611.69;2110252;28;19924;-50
2023/01/22 02:26:47;;;;;;;;;;;;;;;13.76;50.43;103613.59;2104195;28;20454;-48
2023/01/22 02:27:53;;;;;;;;;;;;;;;13.76;50.41;103616.31;2103916;28;20008;-50
2023/01/22 02:28:57;;;;;;;;;;;;;;;13.77;50.54;103621.44;2104735;28;20028;-50
2023/01/22 02:30:02;;;;;;;;;;;;;;;13.77;50.46;103617.91;2103025;28;20296;-51
2023/01/22 02:31:05;;;;;;;;;;;;;;;13.76;50.20;103619.00;2111698;28;19927;-50
2023/01/22 02:32:08;;;;;;;;;;;;;;;13.77;50.28;103615.19;2106210;28;19924;-49
2023/01/22 02:33:12;;;;;;;;;;;;;;;13.76;50.55;103610.88;2098396;28;19932;-51
2023/01/22 02:34:16;;;;;;;;;;;;;;;13.75;50.09;103609.28;2104888;28;19971;-51
2023/01/22 02:35:20;;;;;;;;;;;;;;;13.76;50.71;103613.59;2104860;28;19927;-50
2023/01/22 02:36:23;;;;;;;;;;;;;;;13.76;50.50;103610.88;2104670;28;20430;-50
2023/01/22 02:37:27;;;;;;;;;;;;;;;13.75;50.48;103615.47;2104209;28;19924;-50
2023/01/22 02:38:29;;;;;;;;;;;;;;;13.76;50.01;103621.72;2104207;28;19924;-50
2023/01/22 02:39:33;;;;;;;;;;;;;;;13.76;50.59;103616.31;2112330;28;19931;-50
2023/01/22 02:40:47;;;;;;;;;;;;;;;13.76;50.45;103619.00;2103548;28;19928;-49
2023/01/22 02:41:53;;;;;;;;;;;;;;;13.75;50.38;103609.28;2102438;28;20005;-49
2023/01/22 02:42:55;;;;;;;;;;;;;;;13.75;50.46;103611.97;2099134;28;19932;-48
2023/01/22 02:43:57;;;;;;;;;;;;;;;13.74;50.00;103607.63;2112602;28;19931;-51
2023/01/22 02:44:59;;;;;;;;;;;;;;;13.74;50.18;103610.34;2118845;27;20416;-49
2023/01/22 02:46:02;;;;;;;;;;;;;;;13.75;50.14;103611.97;2105248;28;19927;-50
2023/01/22 02:47:04;;;;;;;;;;;;;;;13.75;50.39;103617.41;2105157;28;19939;-50
2023/01/22 02:48:07;;;;;;;;;;;;;;;13.74;50.17;103615.78;2102302;28;19931;-50
2023/01/22 02:49:09;;;;;;;;;;;;;;;13.75;50.66;103614.69;2104364;28;19927;-50
2023/01/22 02:50:12;;;;;;;;;;;;;;;13.74;50.05;103608.44;2105243;28;20354;-50
2023/01/22 02:51:14;;;;;;;;;;;;;;;13.74;50.19;103613.06;2109835;28;20018;-51
2023/01/22 02:52:18;;;;;;;;;;;;;;;13.74;50.40;103610.34;2104271;28;19957;-51
2023/01/22 02:53:22;;;;;;;;;;;;;;;13.73;50.32;103608.75;2110741;28;19967;-51
2023/01/22 02:54:24;;;;;;;;;;;;;;;13.74;50.39;103621.22;2100044;28;20361;-51
2023/01/22 02:55:26;;;;;;;;;;;;;;;13.74;50.23;103610.34;2113191;28;19927;-51
2023/01/22 02:56:30;;;;;;;;;;;;;;;13.74;50.43;103615.78;2103247;28;19928;-49
2023/01/22 02:57:32;;;;;;;;;;;;;;;13.74;50.49;103615.78;2099890;28;19985;-47
2023/01/22 02:58:35;;;;;;;;;;;;;;;13.74;50.52;103613.06;2099985;28;19960;-50
2023/01/22 02:59:37;;;;;;;;;;;;;;;13.74;50.48;103613.06;2103783;28;20517;-50
2023/01/22 03:00:44;;;;;;;;;;;;;;;13.73;50.08;103617.69;2097553;28;19928;-50
2023/01/22 03:01:46;;;;;;;;;;;;;;;13.74;50.39;103610.34;2102276;28;20379;-50
2023/01/22 03:02:50;;;;;;;;;;;;;;;13.72;50.44;103609.81;2103912;28;19928;-49
2023/01/22 03:03:53;;;;;;;;;;;;;;;13.73;50.49;103616.88;2106463;28;20023;-52
2023/01/22 03:05:02;;;;;;;;;;;;;;;13.73;50.22;103614.19;2108791;28;19946;-51
2023/01/22 03:06:03;;;;;;;;;;;;;;;13.73;50.38;103616.88;2109492;28;19932;-52
2023/01/22 03:07:06;;;;;;;;;;;;;;;13.72;50.54;103609.81;2114289;27;19935;-51
2023/01/22 03:08:07;;;;;;;;;;;;;;;13.72;50.27;103610.66;2117362;27;19927;-50
2023/01/22 03:09:12;;;;;;;;;;;;;;;13.72;50.34;103612.53;2111820;28;19935;-50
2023/01/22 03:10:16;;;;;;;;;;;;;;;13.73;50.65;103611.47;2088417;28;19929;-51
2023/01/22 03:11:20;;;;;;;;;;;;;;;13.72;50.52;103615.25;2100773;28;19929;-49
2023/01/22 03:12:23;;;;;;;;;;;;;;;13.72;50.43;103607.13;2111703;27;20344;-49
2023/01/22 03:21:29;;;;;;;;;;;;;;;13.72;50.21;103609.81;2110246;28;20345;-48
2023/01/22 03:22:31;;;;;;;;;;;;;;;13.73;50.30;103611.47;2113360;27;19934;-51
2023/01/22 03:23:33;;;;;;;;;;;;;;;13.71;50.75;103609.03;2112573;28;20027;-48
2023/01/22 03:24:39;;;;;;;;;;;;;;;13.72;50.59;103609.81;2097019;28;20367;-50
2023/01/22 03:25:41;;;;;;;;;;;;;;;13.72;50.26;103609.81;2104943;27;20422;-47
2023/01/22 03:26:43;;;;;;;;;;;;;;;13.73;50.59;103608.75;2118221;27;19938;-51
2023/01/22 03:29:03;;;;;;;;;;;;;;;13.73;50.21;103606.81;2103996;28;19936;-48
2023/01/22 03:30:05;;;;;;;;;;;;;;;13.74;50.82;103615.78;2106610;28;19931;-51
2023/01/22 03:31:09;;;;;;;;;;;;;;;13.74;50.27;103618.50;2104631;28;19975;-51
2023/01/22 03:32:11;;;;;;;;;;;;;;;13.74;50.74;103610.34;2104518;28;20019;-51
2023/01/22 03:33:15;;;;;;;;;;;;;;;13.75;50.39;103614.69;2105813;28;19927;-49
2023/01/22 03:34:18;;;;;;;;;;;;;;;13.74;50.29;103613.06;2106306;28;19928;-51
2023/01/22 03:35:20;;;;;;;;;;;;;;;13.74;50.49;103618.50;2113488;28;19938;-52
2023/01/22 03:36:37;;;;;;;;;;;;;;;13.75;50.46;103612.78;2104595;28;20424;-51
2023/01/22 03:37:39;;;;;;;;;;;;;;;13.76;50.48;103608.16;2103521;28;19935;-48
2023/01/22 03:38:43;;;;;;;;;;;;;;;13.75;50.39;103607.34;2102501;28;19963;-51
2023/01/22 03:39:50;;;;;;;;;;;;;;;13.76;50.71;103605.44;2104427;28;20022;-50
2023/01/22 03:41:03;;;;;;;;;;;;;;;13.76;50.42;103608.97;2104166;28;19932;-50
2023/01/22 03:42:05;;;;;;;;;;;;;;;13.76;50.38;103608.97;2103296;28;19971;-49
2023/01/22 03:43:09;;;;;;;;;;;;;;;13.77;50.87;103609.75;2100218;28;20476;-50
2023/01/22 03:44:13;;;;;;;;;;;;;;;13.77;50.64;103607.88;2111973;28;19928;-50
2023/01/22 03:45:16;;;;;;;;;;;;;;;13.78;50.71;103605.97;2104678;28;19970;-49
2023/01/22 03:46:19;;;;;;;;;;;;;;;13.78;50.76;103603.25;2101390;28;20677;-49
2023/01/22 03:47:25;;;;;;;;;;;;;;;13.79;50.78;103604.84;2105639;28;20311;-51
2023/01/22 03:48:27;;;;;;;;;;;;;;;13.79;50.77;103608.38;2112709;28;19961;-49
2023/01/22 03:49:30;;;;;;;;;;;;;;;13.80;50.30;103598.31;2108838;28;19935;-50
2023/01/22 03:50:33;;;;;;;;;;;;;;;13.80;50.43;103601.03;2101553;28;19932;-48
2023/01/22 03:51:36;;;;;;;;;;;;;;;13.80;50.40;103609.16;2109737;28;19936;-54
2023/01/22 03:52:38;;;;;;;;;;;;;;;13.79;50.44;103600.22;2113051;28;19939;-53
2023/01/22 03:53:41;;;;;;;;;;;;;;;13.80;50.44;103607.28;2113733;28;19927;-50
2023/01/22 03:54:43;;;;;;;;;;;;;;;13.81;50.47;103597.22;2104202;28;19932;-50
2023/01/22 03:55:54;;;;;;;;;;;;;;;13.81;50.81;103597.22;2097943;28;19932;-50
2023/01/22 03:56:57;;;;;;;;;;;;;;;13.82;50.94;103604.25;2102742;28;19929;-51
2023/01/22 03:58:04;;;;;;;;;;;;;;;13.82;50.38;103598.81;2103096;28;19928;-49
2023/01/22 03:59:07;;;;;;;;;;;;;;;13.82;50.65;103598.81;2102940;28;20422;-52
2023/01/22 04:00:12;;;;;;;;;;;;;;;13.82;50.78;103599.63;2099165;28;20323;-48
2023/01/22 04:01:18;;;;;;;;;;;;;;;13.83;50.60;103603.16;2103264;28;19935;-51
2023/01/22 04:02:20;;;;;;;;;;;;;;;13.83;50.59;103600.44;2104022;28;19924;-51
2023/01/22 04:03:38;;;;;;;;;;;;;;;13.84;50.46;103602.06;2105747;28;19928;-50
2023/01/22 04:04:39;;;;;;;;;;;;;;;13.85;50.75;103598.22;2108137;28;19935;-50
2023/01/22 04:05:42;;;;;;;;;;;;;;;13.84;50.45;103600.16;2104528;28;19967;-50
2023/01/22 04:06:44;;;;;;;;;;;;;;;13.85;50.86;103604.47;2107986;28;20026;-50
2023/01/22 04:07:49;;;;;;;;;;;;;;;13.85;50.41;103603.66;2110188;28;19931;-49
2023/01/22 04:08:54;;;;;;;;;;;;;;;13.86;50.81;103602.59;2103555;28;19954;-50
2023/01/22 04:10:01;;;;;;;;;;;;;;;13.86;50.32;103602.59;2098487;28;20000;-51
2023/01/22 04:11:07;;;;;;;;;;;;;;;13.86;50.48;103605.28;2096476;28;20555;-50
2023/01/22 04:12:10;;;;;;;;;;;;;;;13.86;50.92;103600.66;2103632;28;19928;-51
2023/01/22 04:13:12;;;;;;;;;;;;;;;13.87;50.94;103604.19;2098192;28;19928;-50
2023/01/22 04:14:18;;;;;;;;;;;;;;;13.86;50.78;103606.09;2100748;28;20318;-51
2023/01/22 04:15:29;;;;;;;;;;;;;;;13.88;50.61;103605.78;2100693;28;20027;-49
2023/01/22 04:16:32;;;;;;;;;;;;;;;13.87;50.77;103605.00;2102604;28;19971;-48
2023/01/22 04:17:41;;;;;;;;;;;;;;;13.88;50.75;103603.06;2097148;28;20025;-49
2023/01/22 04:18:58;;;;;;;;;;;;;;;13.87;50.72;103602.28;2098008;28;19932;-50
2023/01/22 04:20:20;;;;;;;;;;;;;;;13.88;50.57;103603.06;2103993;28;19935;-47
2023/01/22 04:21:33;;;;;;;;;;;;;;;13.89;50.49;103602.00;2104114;28;19939;-52
2023/01/22 04:22:36;;;;;;;;;;;;;;;13.88;50.65;103601.16;2101580;28;19935;-50
2023/01/22 04:23:40;;;;;;;;;;;;;;;13.89;50.30;103605.50;2101370;28;20676;-49
2023/01/22 04:24:41;;;;;;;;;;;;;;;13.89;50.51;103599.28;2103313;28;19935;-48
2023/01/22 04:25:44;;;;;;;;;;;;;;;13.89;50.51;103602.78;2096691;28;19924;-50
2023/01/22 04:26:48;;;;;;;;;;;;;;;13.89;50.43;103604.69;2104353;28;19928;-50
2023/01/22 04:27:52;;;;;;;;;;;;;;;13.90;50.35;103606.31;2104234;28;19924;-51
2023/01/22 04:28:56;;;;;;;;;;;;;;;13.90;50.75;103603.59;2100214;28;20006;-51
2023/01/22 04:29:58;;;;;;;;;;;;;;;13.90;50.23;103606.31;2098861;28;19928;-48
2023/01/22 04:31:01;;;;;;;;;;;;;;;13.91;50.56;103605.19;2103233;28;19974;-50
2023/01/22 04:32:11;;;;;;;;;;;;;;;13.90;50.41;103603.59;2103820;28;20338;-49
2023/01/22 04:33:31;;;;;;;;;;;;;;;13.90;49.99;103606.31;2098495;28;19928;-52
2023/01/22 04:34:43;;;;;;;;;;;;;;;13.90;50.07;103603.59;2097475;28;19929;-52
2023/01/22 04:35:54;;;;;;;;;;;;;;;13.90;49.86;103609.84;2097346;28;20430;-52
2023/01/22 04:36:57;;;;;;;;;;;;;;;13.91;49.89;103605.19;2101879;28;19928;-50
2023/01/22 04:38:02;;;;;;;;;;;;;;;13.91;50.24;103607.91;2103290;28;19928;-52
2023/01/22 04:39:05;;;;;;;;;;;;;;;13.90;49.89;103607.13;2104175;28;20482;-51
2023/01/22 04:40:07;;;;;;;;;;;;;;;13.91;50.07;103602.47;2098033;28;20323;-51
2023/01/22 04:41:11;;;;;;;;;;;;;;;13.91;50.48;103607.91;2097233;28;19933;-50
2023/01/22 04:42:14;;;;;;;;;;;;;;;13.91;50.30;103607.91;2103769;28;19969;-52
2023/01/22 04:43:17;;;;;;;;;;;;;;;13.91;50.28;103610.63;2103161;28;20383;-49
2023/01/22 04:44:18;;;;;;;;;;;;;;;13.91;50.25;103602.47;2102234;28;20287;-50
2023/01/22 04:45:21;;;;;;;;;;;;;;;13.91;49.98;103602.47;2096127;28;19929;-49
2023/01/22 04:46:23;;;;;;;;;;;;;;;13.91;49.92;103607.91;2101120;28;19924;-53
2023/01/22 04:47:26;;;;;;;;;;;;;;;13.91;49.98;103610.63;2101074;28;19971;-51
2023/01/22 04:48:28;;;;;;;;;;;;;;;13.91;50.31;103607.91;2103448;28;19924;-50
2023/01/22 04:49:31;;;;;;;;;;;;;;;13.92;50.29;103609.53;2104777;28;19927;-50
2023/01/22 04:50:33;;;;;;;;;;;;;;;13.91;49.89;103606.00;2109339;28;19925;-51
2023/01/22 04:51:35;;;;;;;;;;;;;;;13.90;50.25;103612.56;2096006;28;20423;-50
2023/01/22 04:52:37;;;;;;;;;;;;;;;13.91;50.29;103614.16;2098055;28;19924;-51
2023/01/22 04:53:40;;;;;;;;;;;;;;;13.91;50.13;103610.63;2098310;28;20435;-49
2023/01/22 04:54:42;;;;;;;;;;;;;;;13.91;49.77;103614.16;2098569;28;20339;-51
2023/01/22 04:55:45;;;;;;;;;;;;;;;13.91;49.98;103607.91;2103180;28;20502;-51
2023/01/22 04:56:47;;;;;;;;;;;;;;;13.91;49.79;103614.16;2101800;28;19932;-50
2023/01/22 04:57:53;;;;;;;;;;;;;;;13.92;49.82;103617.69;2102874;28;19928;-51
2023/01/22 04:58:55;;;;;;;;;;;;;;;13.91;49.82;103616.06;2103884;28;20614;-50
2023/01/22 04:59:58;;;;;;;;;;;;;;;13.91;49.79;103613.34;2097928;28;19935;-49
2023/01/22 05:01:01;;;;;;;;;;;;;;;13.92;49.69;103609.53;2101658;28;19955;-50
2023/01/22 05:02:03;;;;;;;;;;;;;;;13.91;50.10;103616.06;2103331;28;20373;-50
2023/01/22 05:03:06;;;;;;;;;;;;;;;13.91;49.99;103613.34;2101840;28;19935;-50
2023/01/22 05:04:08;;;;;;;;;;;;;;;13.90;49.86;103607.13;2098387;28;19928;-48
2023/01/22 05:05:10;;;;;;;;;;;;;;;13.91;50.05;103616.06;2111799;28;19950;-50
2023/01/22 05:06:12;;;;;;;;;;;;;;;13.91;49.73;103616.06;2110569;28;19924;-47
2023/01/22 05:07:15;;;;;;;;;;;;;;;13.91;49.77;103610.63;2104330;28;20421;-49
2023/01/22 05:08:17;;;;;;;;;;;;;;;13.91;50.14;103616.06;2096357;28;20407;-48
2023/01/22 05:09:20;;;;;;;;;;;;;;;13.89;49.80;103613.63;2096703;28;19928;-48
2023/01/22 05:10:27;;;;;;;;;;;;;;;13.91;49.99;103616.06;2112156;28;20417;-50
2023/01/22 05:11:30;;;;;;;;;;;;;;;13.90;50.12;103614.44;2109335;28;20502;-52
2023/01/22 05:12:35;;;;;;;;;;;;;;;13.91;49.75;103618.78;2108642;28;20014;-50
2023/01/22 05:13:39;;;;;;;;;;;;;;;13.90;50.16;103611.72;2104869;28;20007;-49
2023/01/22 05:14:41;;;;;;;;;;;;;;;13.89;49.68;103621.00;2104543;28;19928;-50
2023/01/22 05:15:44;;;;;;;;;;;;;;;13.90;50.20;103619.88;2105365;28;19947;-50
2023/01/22 05:16:48;;;;;;;;;;;;;;;13.89;49.98;103621.00;2096320;28;19932;-51
2023/01/22 05:17:50;;;;;;;;;;;;;;;13.90;49.71;103625.31;2106797;28;19928;-49
2023/01/22 05:18:52;;;;;;;;;;;;;;;13.89;49.87;103621.78;2106942;28;19935;-50
2023/01/22 05:19:54;;;;;;;;;;;;;;;13.89;50.20;103621.78;2112828;28;20405;-50
2023/01/22 05:20:56;;;;;;;;;;;;;;;13.89;49.62;103626.44;2103853;28;19986;-50
2023/01/22 05:22:02;;;;;;;;;;;;;;;13.88;49.65;103622.09;2098825;28;20029;-49
2023/01/22 05:23:05;;;;;;;;;;;;;;;13.88;50.21;103622.09;2099055;28;20382;-48
2023/01/22 05:24:08;;;;;;;;;;;;;;;13.88;49.67;103628.31;2098209;28;19936;-48
2023/01/22 05:25:12;;;;;;;;;;;;;;;13.89;50.11;103626.44;2100966;28;19935;-50
2023/01/22 05:26:15;;;;;;;;;;;;;;;13.88;49.67;103630.22;2102729;28;19931;-51
2023/01/22 05:27:29;;;;;;;;;;;;;;;13.88;49.67;103630.22;2102621;28;20001;-48
2023/01/22 05:28:40;;;;;;;;;;;;;;;13.88;50.01;103630.22;2100127;28;20318;-48
2023/01/22 05:29:53;;;;;;;;;;;;;;;13.87;49.73;103629.44;2106928;28;20406;-49
2023/01/22 05:31:14;;;;;;;;;;;;;;;13.87;49.66;103625.91;2110691;28;19950;-49
2023/01/22 05:32:23;;;;;;;;;;;;;;;13.86;50.00;103619.66;2108559;28;20041;-49
2023/01/22 05:33:29;;;;;;;;;;;;;;;13.86;49.80;103625.09;2103195;28;20387;-51
2023/01/22 05:34:31;;;;;;;;;;;;;;;13.87;50.12;103628.63;2097677;28;20439;-50
2023/01/22 05:35:34;;;;;;;;;;;;;;;13.87;50.00;103628.63;2105025;28;19928;-50
2023/01/22 05:36:36;;;;;;;;;;;;;;;13.86;49.69;103621.59;2107473;28;19932;-48
2023/01/22 05:37:44;;;;;;;;;;;;;;;13.87;49.63;103623.19;2106156;28;20431;-51